Terminal Aerodrome Forecast
Issued by NWS

Home | Current Version | Previous Version | Text Only | Print | Product List | Glossary On
Versions: 1 2 3 4 5 6 7 8 9 10 11 12 13 14 15 16 17 18 19 20 21 22 23 24 25 26 27 28 29 30 31 32 33 34 35 36 37 38 39 40 41 42 43 44 45 46 47 48 49 50
000
FTUS44 KHGX 251130
TAFIAH
TAFIAH
TAF
KIAH 251130Z 2512/2618 13003KT P6SM FEW020 OVC250
      TEMPO 2512/2513 BKN021
     FM251300 15008KT P6SM SCT015 BKN025
     FM251600 16012G18KT P6SM VCSH BKN030
     FM251800 16012G18KT P6SM VCTS BKN040CB
      TEMPO 2519/2523 VRB10G30KT TSRA
     FM260200 13006KT P6SM BKN050
     FM260900 13007KT P6SM SCT015 BKN025
     FM261500 15011KT P6SM VCSH BKN030=

USA.gov is the U.S. government's official web portal to all federal, state and local government web resources and services.